Time;durP1;ratioP1;P1;durP2;ratioP2;P2;SDS_P1;SDS_P2;PMS_P1;PMS_P2;Temp;Humidity;BMP_temperature;BMP_pressure;BME280_temperature;BME280_humidity;BME280_pressure;Samples;Min_cycle;Max_cycle;Signal;HPM_P1;HPM_P2
2023/07/08 00:01:53;;;;;;;5.63;3.38;;;;;;;20.39;55.14;101547.53;5000763;28;20014;-51
2023/07/08 00:04:19;;;;;;;5.15;3.08;;;;;;;20.37;54.79;101544.16;4998009;28;20041;-52
2023/07/08 00:06:44;;;;;;;6.03;3.00;;;;;;;20.32;55.62;101533.84;5002372;28;20029;-53
2023/07/08 00:09:13;;;;;;;7.43;3.40;;;;;;;20.26;55.88;101539.06;5002984;28;20395;-50
2023/07/08 00:11:38;;;;;;;4.15;3.55;;;;;;;20.21;55.46;101533.31;4996737;28;20077;-51
2023/07/08 00:14:03;;;;;;;9.02;3.60;;;;;;;20.19;56.36;101543.44;4990865;28;20049;-50
2023/07/08 00:16:29;;;;;;;6.13;3.40;;;;;;;20.12;56.37;101533.28;5001655;28;20022;-50
2023/07/08 00:18:54;;;;;;;4.55;3.42;;;;;;;20.11;56.70;101534.28;5002848;28;20036;-50
2023/07/08 00:21:20;;;;;;;5.43;3.72;;;;;;;20.05;57.07;101529.56;4993442;28;20044;-50
2023/07/08 00:23:50;;;;;;;5.00;3.33;;;;;;;20.03;56.83;101534.25;5002794;28;20374;-53
2023/07/08 00:26:35;;;;;;;5.50;3.38;;;;;;;20.04;56.29;101535.13;5000229;28;20042;-50
2023/07/08 00:29:00;;;;;;;5.47;3.42;;;;;;;19.94;57.02;101527.16;5000671;28;20038;-51
2023/07/08 00:31:26;;;;;;;6.93;3.63;;;;;;;19.92;57.33;101531.88;5000678;28;20026;-50
2023/07/08 00:33:55;;;;;;;7.82;3.40;;;;;;;19.87;58.21;101531.50;4997680;28;20452;-51
2023/07/08 00:36:21;;;;;;;7.03;3.38;;;;;;;19.84;57.84;101523.75;5000111;28;20076;-50
2023/07/08 00:38:46;;;;;;;4.82;3.22;;;;;;;19.82;58.13;101525.72;5001854;28;20029;-50
2023/07/08 00:41:27;;;;;;;7.32;3.53;;;;;;;19.78;57.88;101526.09;4998965;28;20029;-52
2023/07/08 00:43:55;;;;;;;9.40;3.38;;;;;;;19.77;58.42;101519.00;4997791;28;20033;-51
2023/07/08 00:46:26;;;;;;;6.68;3.70;;;;;;;19.71;58.30;101518.75;4986157;28;20029;-50
2023/07/08 00:48:56;;;;;;;6.30;3.65;;;;;;;19.67;58.96;101517.38;4996643;28;20029;-50
2023/07/08 00:51:23;;;;;;;5.97;3.10;;;;;;;19.59;59.63;101516.34;4999222;28;20343;-50
2023/07/08 00:53:48;;;;;;;7.25;3.75;;;;;;;19.58;59.42;101519.19;5000336;28;20113;-50
2023/07/08 00:56:38;;;;;;;4.85;3.88;;;;;;;19.57;58.26;101512.13;5000848;28;20105;-51
2023/07/08 00:59:09;;;;;;;5.50;3.80;;;;;;;19.49;59.80;101509.41;4996826;28;20026;-50
2023/07/08 01:01:39;;;;;;;4.60;3.47;;;;;;;19.44;60.10;101514.41;4997193;28;20022;-49
2023/07/08 01:04:11;;;;;;;6.85;3.50;;;;;;;19.41;59.61;101515.56;4995958;28;20378;-50
2023/07/08 01:06:41;;;;;;;5.90;3.38;;;;;;;19.36;59.65;101510.66;4997222;28;20109;-52
2023/07/08 01:09:10;;;;;;;7.93;3.97;;;;;;;19.33;60.65;101513.66;5000757;28;20053;-50
2023/07/08 01:11:37;;;;;;;;;;;;;;;19.45;57.53;101505.31;4996928;28;20030;-50
2023/07/08 01:14:06;;;;;;;7.07;3.53;;;;;;;19.28;60.17;101505.22;5002157;28;19920;-50
2023/07/08 01:16:33;;;;;;;6.78;3.85;;;;;;;19.25;61.02;101510.06;5012320;28;20037;-50
2023/07/08 01:19:00;;;;;;;5.47;3.38;;;;;;;19.22;61.07;101511.25;4998363;28;20022;-51
2023/07/08 01:21:36;;;;;;;8.27;3.83;;;;;;;19.17;61.12;101517.09;5000381;28;20033;-49
2023/07/08 01:24:05;;;;;;;6.50;3.80;;;;;;;19.15;61.13;101513.72;5000118;28;20390;-50
2023/07/08 01:26:35;;;;;;;6.60;3.90;;;;;;;19.07;61.13;101510.97;4999815;28;20088;-50
2023/07/08 01:29:02;;;;;;;5.70;3.60;;;;;;;19.02;60.77;101494.47;5001307;28;20029;-50
2023/07/08 01:31:28;;;;;;;6.47;3.78;;;;;;;19.03;61.26;101504.19;4994383;28;20030;-51
2023/07/08 01:33:54;;;;;;;4.95;3.90;;;;;;;19.00;61.76;101510.75;4997415;28;21013;-53
2023/07/08 01:36:19;;;;;;;4.55;3.65;;;;;;;18.97;61.74;101508.38;4996844;28;20034;-51
2023/07/08 01:38:45;;;;;;;6.28;3.58;;;;;;;18.93;61.59;101506.97;5000419;28;20108;-51
2023/07/08 01:41:13;;;;;;;8.32;4.03;;;;;;;18.89;61.96;101507.47;5002677;28;20108;-50
2023/07/08 01:43:38;;;;;;;4.68;3.80;;;;;;;18.89;62.00;101504.78;5000533;28;20052;-51
2023/07/08 01:46:10;;;;;;;7.78;4.07;;;;;;;18.85;62.48;101505.09;4998295;28;20034;-50
2023/07/08 01:48:40;;;;;;;5.10;4.00;;;;;;;18.82;62.35;101510.75;4996335;28;20092;-50
2023/07/08 01:51:07;;;;;;;5.45;4.18;;;;;;;18.76;62.46;101511.38;5002663;28;20042;-50
2023/07/08 01:53:41;;;;;;;7.55;3.90;;;;;;;18.73;62.85;101498.22;5003414;28;20041;-50
2023/07/08 01:56:07;;;;;;;6.00;4.10;;;;;;;18.73;62.71;101497.38;5000768;28;20121;-50
2023/07/08 01:58:33;;;;;;;4.47;3.58;;;;;;;18.70;63.04;101487.75;5001731;28;20034;-50
2023/07/08 02:01:00;;;;;;;4.85;3.63;;;;;;;18.69;62.70;101491.47;5004880;28;20029;-50
2023/07/08 02:03:26;;;;;;;6.93;3.53;;;;;;;18.65;63.02;101496.31;5000387;28;20030;-51
2023/07/08 02:05:51;;;;;;;7.80;4.07;;;;;;;18.63;62.95;101484.84;5001772;28;20045;-50
2023/07/08 02:08:17;;;;;;;5.53;3.58;;;;;;;18.60;62.29;101479.78;5005600;28;20387;-50
2023/07/08 02:10:51;;;;;;;7.20;3.60;;;;;;;18.59;62.48;101480.78;5001067;28;20033;-50
2023/07/08 02:13:16;;;;;;;4.65;3.50;;;;;;;18.61;62.54;101481.47;5002255;28;20471;-50
2023/07/08 02:15:41;;;;;;;7.15;3.75;;;;;;;18.58;63.18;101476.38;5001721;28;20033;-50
2023/07/08 02:18:06;;;;;;;7.40;4.13;;;;;;;18.58;63.01;101471.00;5002242;28;20030;-50
2023/07/08 02:20:32;;;;;;;6.43;3.50;;;;;;;18.56;62.95;101464.94;5001960;28;20185;-50
2023/07/08 02:22:57;;;;;;;5.80;3.45;;;;;;;18.54;63.14;101466.94;5000535;28;20118;-51
2023/07/08 02:25:23;;;;;;;5.60;3.67;;;;;;;18.48;63.76;101468.44;5004494;28;20109;-50
2023/07/08 02:27:48;;;;;;;7.63;4.00;;;;;;;18.47;63.58;101461.34;5000142;28;20105;-51
2023/07/08 02:30:13;;;;;;;6.25;3.95;;;;;;;18.42;64.30;101463.66;4999411;28;20026;-50
2023/07/08 02:32:39;;;;;;;8.55;4.13;;;;;;;18.41;64.33;101453.88;5001471;28;20104;-53
2023/07/08 02:35:06;;;;;;;6.72;4.32;;;;;;;18.42;63.80;101454.75;5002926;28;20189;-49
2023/07/08 02:37:32;;;;;;;6.55;3.80;;;;;;;18.37;64.64;101444.44;4998340;28;20484;-50
2023/07/08 02:39:58;;;;;;;8.40;4.00;;;;;;;18.37;63.87;101446.28;5003610;28;20033;-50
2023/07/08 02:42:23;;;;;;;7.60;4.18;;;;;;;18.31;64.87;101448.56;4999751;28;20034;-50
2023/07/08 02:44:48;;;;;;;8.35;4.13;;;;;;;18.28;64.89;101450.72;5001461;28;20030;-50
2023/07/08 02:47:14;;;;;;;4.55;3.47;;;;;;;18.23;65.31;101455.72;5002721;28;20041;-50
2023/07/08 02:49:39;;;;;;;7.53;4.40;;;;;;;18.21;64.64;101449.66;5002015;28;20031;-49
2023/07/08 02:52:04;;;;;;;7.90;4.28;;;;;;;18.20;64.77;101448.84;4999598;28;20034;-50
2023/07/08 02:54:30;;;;;;;5.55;3.70;;;;;;;18.18;66.23;101458.88;5002473;28;20018;-49
2023/07/08 02:56:55;;;;;;;7.72;4.35;;;;;;;18.17;65.56;101459.03;4995705;28;20023;-50
2023/07/08 02:59:21;;;;;;;7.35;4.53;;;;;;;18.12;65.75;101456.81;4998612;28;20030;-50
2023/07/08 03:01:46;;;;;;;9.95;4.28;;;;;;;18.11;65.62;101468.53;5005307;28;20113;-50
2023/07/08 03:04:13;;;;;;;6.13;3.80;;;;;;;18.08;65.92;101472.38;5002907;28;20033;-50
2023/07/08 03:06:45;;;;;;;5.20;4.10;;;;;;;18.02;65.84;101473.00;5001787;28;20035;-49
2023/07/08 03:09:12;;;;;;;6.88;4.50;;;;;;;18.00;65.87;101466.06;5000660;28;20049;-49
2023/07/08 03:11:38;;;;;;;12.52;4.00;;;;;;;17.98;66.26;101470.75;5000146;28;20049;-49
2023/07/08 03:14:04;;;;;;;8.23;4.45;;;;;;;17.94;66.24;101465.69;5001886;28;20049;-49
2023/07/08 03:16:29;;;;;;;7.07;4.40;;;;;;;17.95;66.12;101469.19;4996574;28;20431;-50
2023/07/08 03:18:54;;;;;;;10.85;4.53;;;;;;;17.93;66.36;101469.34;4999146;28;20030;-49
2023/07/08 03:21:20;;;;;;;5.30;3.92;;;;;;;17.90;66.56;101468.81;5001035;28;20030;-49
2023/07/08 03:23:45;;;;;;;7.25;4.13;;;;;;;17.89;66.53;101473.34;5001669;28;20026;-49
2023/07/08 03:26:16;;;;;;;7.43;4.30;;;;;;;17.85;66.96;101471.06;4999039;28;20491;-50
2023/07/08 03:28:41;;;;;;;5.25;3.90;;;;;;;17.83;66.39;101468.53;5003007;28;20424;-50
2023/07/08 03:31:09;;;;;;;8.13;4.20;;;;;;;17.80;67.20;101462.63;4996809;28;20035;-50
2023/07/08 03:33:35;;;;;;;8.55;4.55;;;;;;;17.78;66.90;101464.63;5001273;28;20398;-50
2023/07/08 03:36:01;;;;;;;5.20;4.03;;;;;;;17.80;67.38;101468.81;4997664;28;20010;-49
2023/07/08 03:38:27;;;;;;;7.30;4.53;;;;;;;17.74;67.31;101470.28;5002795;28;20038;-49
2023/07/08 03:40:52;;;;;;;6.82;4.15;;;;;;;17.75;67.19;101476.50;5001613;28;20017;-50
2023/07/08 03:43:17;;;;;;;6.38;4.35;;;;;;;17.72;67.48;101480.34;5001940;28;20084;-50
2023/07/08 03:45:43;;;;;;;7.97;4.00;;;;;;;17.76;67.58;101480.88;5000356;28;20129;-52
2023/07/08 03:48:11;;;;;;;7.32;4.22;;;;;;;17.71;67.83;101477.81;4994409;28;20093;-53
2023/07/08 03:50:36;;;;;;;8.40;4.65;;;;;;;17.75;67.69;101481.88;5002270;28;20026;-53
2023/07/08 03:53:01;;;;;;;5.50;3.95;;;;;;;17.71;68.29;101488.56;5000263;28;20395;-52
2023/07/08 03:55:28;;;;;;;5.93;4.10;;;;;;;17.72;68.05;101490.25;4999016;28;20125;-51
2023/07/08 03:57:53;;;;;;;7.55;4.57;;;;;;;17.69;68.08;101488.69;5004196;28;20030;-53
2023/07/08 04:00:19;;;;;;;7.38;4.25;;;;;;;17.67;68.55;101495.19;4999621;28;20030;-53
2023/07/08 04:02:45;;;;;;;9.77;4.60;;;;;;;17.67;68.57;101495.19;4999651;28;20030;-50
2023/07/08 04:05:28;;;;;;;11.10;4.90;;;;;;;17.67;67.56;101496.06;4998152;28;20029;-53
2023/07/08 04:07:55;;;;;;;7.07;4.40;;;;;;;17.66;68.75;101490.84;4999256;28;20045;-51
2023/07/08 04:10:20;;;;;;;5.45;4.10;;;;;;;17.63;69.03;101486.59;5004376;28;20025;-52
2023/07/08 04:12:45;;;;;;;5.50;3.70;;;;;;;17.63;68.96;101489.28;4996156;28;20449;-54
2023/07/08 04:15:11;;;;;;;5.32;3.92;;;;;;;17.66;67.80;101496.22;4996765;28;20030;-53
2023/07/08 04:17:46;;;;;;;7.55;4.90;;;;;;;17.63;68.61;101502.72;5001366;28;20050;-54
2023/07/08 04:20:19;;;;;;;4.70;4.22;;;;;;;17.65;68.32;101502.56;4998944;28;20041;-52
2023/07/08 04:22:45;;;;;;;10.05;4.32;;;;;;;17.66;69.00;101493.53;4996814;28;20030;-51
2023/07/08 04:25:12;;;;;;;4.90;4.38;;;;;;;17.66;68.79;101497.03;5000537;28;20383;-54
2023/07/08 04:27:37;;;;;;;6.20;4.28;;;;;;;17.68;69.26;101504.97;4999529;28;20435;-51
2023/07/08 04:30:04;;;;;;;6.95;4.30;;;;;;;17.67;69.22;101489.81;4998019;28;20022;-51
2023/07/08 04:32:29;;;;;;;6.30;4.55;;;;;;;17.68;69.37;101491.53;5001373;28;20484;-51
2023/07/08 04:34:55;;;;;;;4.68;4.22;;;;;;;17.68;68.81;101488.84;5001363;28;20057;-52
2023/07/08 04:37:20;;;;;;;8.00;4.07;;;;;;;17.70;69.21;101489.53;5000987;28;20480;-51
2023/07/08 04:39:46;;;;;;;6.60;4.15;;;;;;;17.70;68.90;101489.53;5001573;28;20277;-51
2023/07/08 04:42:16;;;;;;;7.13;3.90;;;;;;;17.71;69.21;101481.31;4999377;28;20045;-51
2023/07/08 04:44:42;;;;;;;5.80;4.25;;;;;;;17.74;69.17;101482.88;5001400;28;20468;-54
2023/07/08 04:47:08;;;;;;;6.57;4.53;;;;;;;17.75;69.56;101488.09;5001516;28;20033;-51
2023/07/08 04:49:35;;;;;;;9.32;4.88;;;;;;;17.79;69.45;101483.28;5000518;28;20038;-51
2023/07/08 04:52:01;;;;;;;7.45;4.53;;;;;;;17.84;69.36;101486.34;4993037;28;20040;-54
2023/07/08 04:54:27;;;;;;;7.70;4.60;;;;;;;17.88;69.39;101487.78;5004343;28;20017;-51
2023/07/08 04:56:53;;;;;;;6.60;4.78;;;;;;;17.97;69.02;101482.50;4999578;28;20034;-51
2023/07/08 04:59:21;;;;;;;7.18;4.60;;;;;;;18.06;68.91;101484.28;5002546;28;20026;-51
2023/07/08 05:01:47;;;;;;;5.10;4.07;;;;;;;18.18;68.19;101485.75;4998151;28;20030;-52
2023/07/08 05:04:14;;;;;;;6.55;4.55;;;;;;;18.24;68.13;101482.47;4999692;28;20291;-51
2023/07/08 05:06:39;;;;;;;10.40;4.70;;;;;;;18.31;68.27;101483.53;4997361;28;20049;-51
2023/07/08 05:09:05;;;;;;;7.72;4.40;;;;;;;18.41;67.67;101493.38;4999414;28;20480;-50
2023/07/08 05:11:31;;;;;;;6.90;4.50;;;;;;;18.51;67.23;101493.31;4998560;28;20030;-51
2023/07/08 05:13:56;;;;;;;4.95;4.30;;;;;;;18.53;67.33;101486.78;4999806;28;20030;-50
2023/07/08 05:16:22;;;;;;;8.88;4.30;;;;;;;18.58;66.89;101486.31;4994677;28;20081;-53
2023/07/08 05:18:47;;;;;;;4.22;3.83;;;;;;;18.59;67.48;101486.16;4997963;28;20030;-51
2023/07/08 05:21:13;;;;;;;4.85;3.90;;;;;;;18.63;66.95;101486.69;4997889;28;20023;-50
2023/07/08 05:23:38;;;;;;;6.82;4.78;;;;;;;18.64;67.20;101488.41;4998681;28;20077;-51
2023/07/08 05:26:05;;;;;;;5.75;4.53;;;;;;;18.65;67.53;101482.00;5000178;28;20045;-52
2023/07/08 05:28:31;;;;;;;7.82;5.18;;;;;;;18.70;67.55;101484.22;5006656;28;20046;-50
2023/07/08 05:30:56;;;;;;;6.72;4.55;;;;;;;18.76;67.18;101489.00;5004493;28;20460;-51
2023/07/08 05:33:27;;;;;;;4.88;4.22;;;;;;;18.82;67.19;101473.06;5006172;28;20066;-51
2023/07/08 05:35:53;;;;;;;6.68;4.38;;;;;;;18.91;67.24;101465.09;5001438;28;20117;-51
2023/07/08 05:38:19;;;;;;;5.10;4.30;;;;;;;19.05;66.72;101467.19;5005109;28;20026;-51
2023/07/08 05:40:49;;;;;;;6.93;4.72;;;;;;;19.20;66.41;101473.72;5008533;28;20064;-51
2023/07/08 05:43:15;;;;;;;6.72;5.20;;;;;;;19.36;66.22;101472.94;5003697;28;20113;-51
2023/07/08 05:45:40;;;;;;;9.25;4.78;;;;;;;19.58;65.43;101468.88;5007446;28;20037;-51
2023/07/08 05:48:05;;;;;;;8.10;4.90;;;;;;;19.78;64.44;101472.19;5008138;28;20077;-53
2023/07/08 05:50:31;;;;;;;7.13;4.50;;;;;;;20.00;64.02;101471.72;5006538;28;20037;-51
2023/07/08 05:52:56;;;;;;;7.60;4.87;;;;;;;20.25;63.76;101472.63;5005108;28;20086;-51
2023/07/08 05:55:21;;;;;;;8.57;4.80;;;;;;;20.43;61.77;101470.63;5003679;28;20292;-50
2023/07/08 05:57:47;;;;;;;5.18;4.30;;;;;;;20.66;62.40;101468.13;5006182;28;20101;-51
2023/07/08 06:00:13;;;;;;;9.35;4.70;;;;;;;20.92;61.41;101466.25;4999888;28;20530;-51
2023/07/08 06:02:38;;;;;;;6.45;4.63;;;;;;;21.07;59.78;101470.81;5012168;28;20526;-51
2023/07/08 06:05:03;;;;;;;7.75;4.82;;;;;;;21.33;60.32;101471.59;5006886;28;20375;-51
2023/07/08 06:07:29;;;;;;;6.13;4.78;;;;;;;21.52;59.13;101473.94;5003665;28;20395;-50
2023/07/08 06:09:56;;;;;;;8.60;4.82;;;;;;;21.83;58.07;101472.28;4997449;28;20031;-51
2023/07/08 06:12:22;;;;;;;7.45;4.25;;;;;;;21.99;56.98;101477.59;5001518;28;20061;-52
2023/07/08 06:14:47;;;;;;;7.22;4.70;;;;;;;22.26;56.49;101478.94;5000988;28;20037;-54
2023/07/08 06:17:13;;;;;;;5.28;4.13;;;;;;;22.43;54.84;101484.28;4994013;28;20034;-51
2023/07/08 06:19:38;;;;;;;11.18;4.97;;;;;;;22.45;52.93;101482.22;4997247;28;20088;-52
2023/07/08 06:22:04;;;;;;;7.30;4.50;;;;;;;22.55;53.06;101490.97;4996960;28;20038;-50
2023/07/08 06:24:29;;;;;;;11.07;4.95;;;;;;;22.69;52.81;101489.34;5002128;28;20097;-51
2023/07/08 06:26:55;;;;;;;11.00;4.78;;;;;;;22.81;51.84;101484.31;5001071;28;20513;-50
2023/07/08 06:29:20;;;;;;;8.00;4.85;;;;;;;23.00;51.77;101491.94;5000508;28;20038;-51
2023/07/08 06:31:45;;;;;;;8.45;4.70;;;;;;;23.21;51.22;101482.28;5002609;28;20034;-51
2023/07/08 06:34:10;;;;;;;10.48;5.13;;;;;;;23.37;50.47;101483.97;4997585;28;20436;-51
2023/07/08 06:36:36;;;;;;;7.65;4.60;;;;;;;23.50;50.24;101481.47;5002722;28;20042;-51
2023/07/08 06:39:01;;;;;;;10.68;4.95;;;;;;;23.76;50.57;101486.38;4996607;28;20110;-48
2023/07/08 06:41:27;;;;;;;7.32;4.72;;;;;;;23.89;50.14;101474.06;4999994;28;20077;-49
2023/07/08 06:43:53;;;;;;;6.43;4.68;;;;;;;24.16;48.32;101472.47;4999112;28;20050;-51
2023/07/08 06:46:19;;;;;;;7.20;4.60;;;;;;;24.37;48.41;101477.09;5001325;28;20135;-51
2023/07/08 06:48:44;;;;;;;7.88;4.68;;;;;;;24.59;48.06;101479.81;4992961;28;20514;-52
2023/07/08 06:51:09;;;;;;;9.73;5.00;;;;;;;24.77;47.38;101490.22;5003181;28;20046;-54
2023/07/08 06:53:35;;;;;;;10.50;4.90;;;;;;;25.04;47.23;101485.84;4998476;28;20090;-53
2023/07/08 06:56:02;;;;;;;6.25;4.80;;;;;;;25.21;45.78;101479.03;5000582;28;20070;-51
2023/07/08 06:58:27;;;;;;;9.70;5.07;;;;;;;25.37;45.87;101469.78;4998401;28;20030;-51
2023/07/08 07:00:53;;;;;;;7.65;4.65;;;;;;;25.66;44.34;101475.97;4990122;28;20042;-51
2023/07/08 07:03:18;;;;;;;8.32;4.97;;;;;;;25.86;43.16;101467.88;5000573;28;20561;-52
2023/07/08 07:05:44;;;;;;;9.32;4.90;;;;;;;26.08;43.29;101476.81;4999592;28;20065;-51
2023/07/08 07:08:09;;;;;;;7.75;4.53;;;;;;;26.29;43.58;101483.13;4997467;28;20038;-51
2023/07/08 07:10:34;;;;;;;7.93;5.00;;;;;;;26.47;42.08;101477.91;4995606;28;20038;-51
2023/07/08 07:13:00;;;;;;;8.88;5.00;;;;;;;26.66;41.63;101470.81;4996517;28;20109;-51
2023/07/08 07:15:25;;;;;;;7.38;4.43;;;;;;;26.96;42.25;101478.56;4999310;28;20042;-51
2023/07/08 07:17:51;;;;;;;9.43;4.80;;;;;;;27.27;41.91;101467.00;5001503;28;20018;-50
2023/07/08 07:20:16;;;;;;;10.40;5.00;;;;;;;27.41;40.83;101478.75;4990991;28;20455;-48
2023/07/08 07:22:42;;;;;;;7.90;4.75;;;;;;;27.49;39.94;101473.03;4990740;28;20018;-48
2023/07/08 07:25:07;;;;;;;7.72;5.18;;;;;;;27.64;39.49;101466.50;4992850;28;20702;-48
2023/07/08 07:27:33;;;;;;;7.90;5.13;;;;;;;27.78;39.79;101467.25;4990671;28;20383;-48
2023/07/08 07:30:01;;;;;;;12.57;5.00;;;;;;;28.09;39.33;101471.97;4992841;28;20045;-48
2023/07/08 07:32:29;;;;;;;8.40;5.03;;;;;;;28.30;38.36;101472.69;4993340;28;20109;-45
2023/07/08 07:34:54;;;;;;;8.53;4.63;;;;;;;28.54;38.36;101469.13;4992669;28;20077;-46
2023/07/08 07:37:21;;;;;;;12.63;4.82;;;;;;;28.73;37.44;101472.81;4996752;28;20470;-47
2023/07/08 07:39:47;;;;;;;12.45;4.95;;;;;;;29.04;38.10;101472.94;4999065;28;20026;-46
2023/07/08 07:42:15;;;;;;;6.63;4.90;;;;;;;29.03;36.68;101480.31;5001795;28;20022;-49
2023/07/08 07:44:40;;;;;;;6.90;4.88;;;;;;;29.22;36.12;101473.00;4996776;28;20468;-49
2023/07/08 07:47:07;;;;;;;7.35;4.80;;;;;;;29.47;36.29;101458.41;5001861;28;20027;-48
2023/07/08 07:49:32;;;;;;;6.22;5.03;;;;;;;29.70;35.95;101465.91;4999525;28;20022;-52
2023/07/08 07:51:58;;;;;;;7.78;5.38;;;;;;;29.83;35.33;101467.69;5000854;28;20082;-53
2023/07/08 07:54:24;;;;;;;9.52;5.05;;;;;;;30.01;35.06;101473.13;5000795;28;20026;-48
2023/07/08 07:56:49;;;;;;;8.60;4.95;;;;;;;30.18;33.73;101461.50;5000273;28;20026;-50
2023/07/08 07:59:15;;;;;;;10.68;5.38;;;;;;;30.35;34.22;101461.66;4998404;28;20034;-50
2023/07/08 08:01:43;;;;;;;7.73;5.37;;;;;;;30.54;32.97;101460.53;4998739;28;20697;-49
2023/07/08 08:04:10;;;;;;;6.45;5.03;;;;;;;30.75;34.38;101455.56;5001869;28;20276;-50
2023/07/08 08:06:36;;;;;;;7.68;5.13;;;;;;;30.98;32.08;101458.31;4994921;28;20042;-53
2023/07/08 08:09:02;;;;;;;7.50;4.95;;;;;;;31.26;32.58;101462.25;4997172;28;20022;-50
2023/07/08 08:11:27;;;;;;;11.38;5.30;;;;;;;31.33;31.92;101457.44;4996557;28;20045;-50
2023/07/08 08:13:53;;;;;;;10.00;5.45;;;;;;;31.43;31.57;101467.81;4996926;28;20057;-50
2023/07/08 08:16:20;;;;;;;6.25;5.10;;;;;;;31.62;32.30;101467.66;4986909;28;20463;-50
2023/07/08 08:18:45;;;;;;;8.18;5.07;;;;;;;31.88;31.99;101469.84;4994746;28;20023;-50
2023/07/08 08:21:10;;;;;;;9.80;5.40;;;;;;;32.14;31.67;101478.59;4996488;28;20037;-50
2023/07/08 08:23:36;;;;;;;12.53;5.00;;;;;;;32.28;31.08;101481.88;4992443;28;20507;-51
2023/07/08 08:26:02;;;;;;;8.00;4.65;;;;;;;32.42;30.28;101468.63;4996939;28;20321;-50
2023/07/08 08:28:27;;;;;;;10.30;5.15;;;;;;;32.78;31.30;101485.75;4999438;28;20065;-51
2023/07/08 08:30:52;;;;;;;7.93;5.27;;;;;;;32.82;30.21;101484.16;4996858;28;20023;-50
2023/07/08 08:33:18;;;;;;;8.10;5.00;;;;;;;33.14;29.62;101483.53;4996860;28;20296;-50
2023/07/08 08:35:44;;;;;;;12.93;5.75;;;;;;;33.10;29.46;101476.88;4996519;28;20026;-50
2023/07/08 08:38:09;;;;;;;9.77;5.20;;;;;;;33.14;31.22;101480.78;5000991;28;20506;-51
2023/07/08 08:40:34;;;;;;;8.25;4.93;;;;;;;33.43;30.08;101483.41;5001026;28;20022;-51
2023/07/08 08:43:09;;;;;;;7.75;5.70;;;;;;;33.59;30.24;101490.75;5000943;28;20026;-50
2023/07/08 08:45:43;;;;;;;8.02;5.43;;;;;;;33.84;29.57;101492.19;4995805;28;20042;-51
2023/07/08 08:48:13;;;;;;;8.80;6.07;;;;;;;33.97;28.90;101485.44;4995351;28;20488;-51
2023/07/08 08:50:49;;;;;;;9.18;5.38;;;;;;;34.00;28.76;101488.50;5002247;28;20026;-51
2023/07/08 08:53:17;;;;;;;8.77;5.50;;;;;;;34.16;28.32;101484.00;4996167;28;20517;-51
2023/07/08 08:55:42;;;;;;;;;;;;;;;34.70;30.49;101490.56;4999364;28;20023;-52
2023/07/08 08:58:26;;;;;;;8.27;5.45;;;;;;;34.63;28.48;101493.53;4998974;28;20283;-52
2023/07/08 09:01:16;;;;;;;8.57;5.07;;;;;;;35.01;28.41;101497.97;4999700;28;20053;-51
2023/07/08 09:03:56;;;;;;;11.55;5.50;;;;;;;35.12;27.98;101496.09;4973143;28;20042;-50
2023/07/08 09:06:30;;;;;;;7.10;5.28;;;;;;;35.26;26.68;101495.66;5000263;28;20049;-51
2023/07/08 09:09:05;;;;;;;10.82;5.57;;;;;;;35.71;26.58;101496.97;5003430;28;20029;-51
2023/07/08 09:11:55;;;;;;;10.95;6.25;;;;;;;35.90;26.21;101489.84;4996345;28;20041;-51
2023/07/08 09:14:29;;;;;;;7.22;5.93;;;;;;;36.11;26.37;101478.84;4997762;28;20427;-52
2023/07/08 09:17:16;;;;;;;9.70;6.20;;;;;;;36.61;26.48;101476.41;4998726;28;20116;-51
2023/07/08 09:19:48;;;;;;;10.50;6.60;;;;;;;36.71;23.50;101467.25;4997599;28;20022;-51
2023/07/08 09:22:26;;;;;;;8.43;5.82;;;;;;;36.93;24.29;101464.19;5002969;28;20026;-51
2023/07/08 09:24:59;;;;;;;7.30;6.30;;;;;;;36.99;23.87;101471.38;5001230;28;20091;-51
2023/07/08 09:27:25;;;;;;;7.93;6.18;;;;;;;37.02;23.94;101479.09;4998614;28;20105;-52
2023/07/08 09:29:50;;;;;;;7.80;6.30;;;;;;;37.18;21.31;101474.38;4999716;28;20153;-51
2023/07/08 09:32:19;;;;;;;11.00;5.93;;;;;;;37.50;22.10;101475.94;5001458;28;20033;-52
2023/07/08 09:34:51;;;;;;;6.60;5.75;;;;;;;37.56;21.91;101474.81;5003637;28;20410;-51
2023/07/08 09:37:24;;;;;;;10.15;5.95;;;;;;;37.60;22.43;101473.09;4992258;28;20034;-54
2023/07/08 09:39:52;;;;;;;9.45;5.80;;;;;;;37.71;22.17;101465.59;5010960;28;20042;-51
2023/07/08 09:42:18;;;;;;;10.90;5.90;;;;;;;37.95;22.59;101457.41;4997791;28;20041;-52
2023/07/08 09:44:45;;;;;;;6.47;5.78;;;;;;;37.86;22.58;101459.16;5001937;28;20380;-50
2023/07/08 09:47:25;;;;;;;7.95;5.25;;;;;;;38.34;23.44;101447.41;4998951;28;20033;-51
2023/07/08 09:49:51;;;;;;;7.90;5.60;;;;;;;38.08;21.91;101448.44;5003468;28;20502;-50
2023/07/08 09:52:17;;;;;;;9.23;5.22;;;;;;;38.39;21.49;101452.91;4997394;28;20494;-51
2023/07/08 09:54:42;;;;;;;10.57;6.30;;;;;;;38.35;21.84;101454.63;4995646;28;20022;-50
2023/07/08 09:57:17;;;;;;;9.82;5.93;;;;;;;38.60;22.67;101454.41;4995527;28;20165;-51
2023/07/08 09:59:49;;;;;;;12.43;6.15;;;;;;;38.74;21.28;101449.03;4994660;28;20053;-51
2023/07/08 10:02:52;;;;;;;8.57;5.95;;;;;;;39.00;22.46;101457.06;4997459;28;20026;-50
2023/07/08 10:05:39;;;;;;;11.38;5.57;;;;;;;39.22;23.69;101451.84;4997752;28;20028;-50
2023/07/08 10:08:21;;;;;;;8.70;5.43;;;;;;;39.16;21.50;101457.75;4996762;28;20023;-52
2023/07/08 10:11:00;;;;;;;9.68;5.78;;;;;;;39.09;20.58;101449.78;4999857;28;20514;-48
2023/07/08 10:13:40;;;;;;;8.07;5.55;;;;;;;39.20;21.54;101451.28;4997333;28;20102;-49
2023/07/08 10:16:20;;;;;;;6.35;5.65;;;;;;;39.51;20.87;101464.81;4993614;28;20551;-52
2023/07/08 10:18:46;;;;;;;7.55;5.82;;;;;;;39.78;21.65;101458.59;5002984;28;20113;-50
2023/07/08 10:21:37;;;;;;;8.00;5.40;;;;;;;39.93;21.35;101457.53;4996623;28;20122;-50
2023/07/08 10:24:14;;;;;;;6.20;5.47;;;;;;;39.68;20.84;101455.16;5002665;28;20109;-50
2023/07/08 10:26:40;;;;;;;8.77;5.57;;;;;;;39.80;19.84;101449.13;4996071;28;20057;-51
2023/07/08 10:29:29;;;;;;;8.55;5.78;;;;;;;40.36;21.30;101444.66;4987594;28;20125;-49
2023/07/08 10:32:22;;;;;;;9.25;5.38;;;;;;;40.53;21.08;101446.88;4999086;28;20041;-48
2023/07/08 10:35:15;;;;;;;7.68;5.70;;;;;;;40.66;21.13;101452.44;4995404;28;20105;-50
2023/07/08 10:38:09;;;;;;;7.57;5.50;;;;;;;40.62;20.83;101457.00;4994266;28;20399;-49
2023/07/08 10:41:03;;;;;;;8.82;5.93;;;;;;;40.41;19.82;101456.53;4999185;28;20077;-50
2023/07/08 10:43:41;;;;;;;8.23;6.00;;;;;;;40.55;20.20;101450.97;4995363;28;20053;-48
2023/07/08 10:46:51;;;;;;;11.50;5.50;;;;;;;40.54;21.07;101454.91;5000860;28;20037;-50
2023/07/08 10:49:40;;;;;;;7.18;5.32;;;;;;;40.57;19.65;101457.09;5000713;28;20510;-49
2023/07/08 10:52:33;;;;;;;9.25;5.25;;;;;;;40.78;19.93;101460.31;4993433;28;20399;-48
2023/07/08 10:55:07;;;;;;;8.32;5.78;;;;;;;40.78;17.98;101465.88;5001876;28;20037;-49
2023/07/08 10:57:53;;;;;;;8.98;5.95;;;;;;;41.04;19.13;101460.66;4998193;28;20050;-49
2023/07/08 11:00:53;;;;;;;7.53;5.22;;;;;;;41.05;19.00;101456.75;4996879;28;20104;-48
2023/07/08 11:04:09;;;;;;;6.88;5.07;;;;;;;41.11;18.43;101451.06;5000170;28;20034;-50
2023/07/08 11:06:49;;;;;;;8.63;5.50;;;;;;;40.87;18.20;101452.06;4988235;28;20046;-49
2023/07/08 11:09:33;;;;;;;7.65;5.47;;;;;;;40.64;18.87;101451.13;4993714;28;20041;-49
2023/07/08 11:12:08;;;;;;;7.93;5.65;;;;;;;40.49;18.44;101455.00;4999548;28;20089;-49
2023/07/08 11:14:42;;;;;;;6.70;5.32;;;;;;;40.41;18.22;101448.19;4998023;28;20042;-48
2023/07/08 11:17:19;;;;;;;13.13;5.88;;;;;;;40.33;18.76;101446.06;4997828;28;20026;-48
2023/07/08 11:19:52;;;;;;;9.50;5.23;;;;;;;40.48;17.90;101451.38;4994910;28;20038;-51
2023/07/08 11:22:21;;;;;;;7.53;5.28;;;;;;;40.55;17.53;101453.78;4995663;28;20419;-51
2023/07/08 11:24:50;;;;;;;10.85;6.28;;;;;;;40.36;17.84;101448.25;4997627;28;20042;-51
2023/07/08 11:27:37;;;;;;;7.15;6.20;;;;;;;40.53;18.21;101447.69;4983585;28;20049;-51
2023/07/08 11:30:06;;;;;;;;;;;;;;;41.03;19.03;101447.03;4998780;28;20040;-51
2023/07/08 11:32:33;;;;;;;6.43;5.72;;;;;;;40.31;16.61;101446.38;4995022;28;19956;-50
2023/07/08 11:35:01;;;;;;;;;;;;;;;41.04;18.06;101443.94;4995077;28;20054;-51